sensor_id;sensor_type;location;lat;lon;timestamp;P1;durP1;ratioP1;P2;durP2;ratioP2
71288;SDS011;59068;52.502;9.860;2023-05-19T00:00:29;4.23;;;2.13;;
71288;SDS011;59068;52.502;9.860;2023-05-19T00:02:58;5.30;;;2.07;;
71288;SDS011;59068;52.502;9.860;2023-05-19T00:05:27;3.73;;;2.10;;
71288;SDS011;59068;52.502;9.860;2023-05-19T00:07:59;6.43;;;2.23;;
71288;SDS011;59068;52.502;9.860;2023-05-19T00:10:32;4.93;;;2.63;;
71288;SDS011;59068;52.502;9.860;2023-05-19T00:12:59;3.77;;;2.30;;
71288;SDS011;59068;52.502;9.860;2023-05-19T00:15:26;6.27;;;2.40;;
71288;SDS011;59068;52.502;9.860;2023-05-19T00:17:52;6.33;;;2.43;;
71288;SDS011;59068;52.502;9.860;2023-05-19T00:20:20;4.47;;;2.50;;
71288;SDS011;59068;52.502;9.860;2023-05-19T00:22:47;5.37;;;2.30;;
71288;SDS011;59068;52.502;9.860;2023-05-19T00:25:14;4.53;;;2.30;;
71288;SDS011;59068;52.502;9.860;2023-05-19T00:27:40;4.50;;;2.60;;
71288;SDS011;59068;52.502;9.860;2023-05-19T00:30:05;6.47;;;2.87;;
71288;SDS011;59068;52.502;9.860;2023-05-19T00:32:31;6.93;;;2.47;;
71288;SDS011;59068;52.502;9.860;2023-05-19T00:34:58;4.67;;;2.33;;
71288;SDS011;59068;52.502;9.860;2023-05-19T00:37:23;4.50;;;2.37;;
71288;SDS011;59068;52.502;9.860;2023-05-19T00:39:49;5.97;;;2.40;;
71288;SDS011;59068;52.502;9.860;2023-05-19T00:42:16;4.83;;;2.60;;
71288;SDS011;59068;52.502;9.860;2023-05-19T00:44:42;3.90;;;2.60;;
71288;SDS011;59068;52.502;9.860;2023-05-19T00:47:08;3.73;;;2.43;;
71288;SDS011;59068;52.502;9.860;2023-05-19T00:49:34;3.57;;;2.37;;
71288;SDS011;59068;52.502;9.860;2023-05-19T00:52:00;4.77;;;2.60;;
71288;SDS011;59068;52.502;9.860;2023-05-19T00:54:27;3.97;;;2.40;;
71288;SDS011;59068;52.502;9.860;2023-05-19T00:56:57;4.63;;;2.60;;
71288;SDS011;59068;52.502;9.860;2023-05-19T00:59:24;3.67;;;2.63;;
71288;SDS011;59068;52.502;9.860;2023-05-19T01:01:50;6.23;;;2.77;;
71288;SDS011;59068;52.502;9.860;2023-05-19T01:04:19;4.07;;;2.43;;
71288;SDS011;59068;52.502;9.860;2023-05-19T01:06:50;4.83;;;2.50;;
71288;SDS011;59068;52.502;9.860;2023-05-19T01:09:21;4.00;;;2.53;;
71288;SDS011;59068;52.502;9.860;2023-05-19T01:11:50;3.13;;;2.13;;
71288;SDS011;59068;52.502;9.860;2023-05-19T01:14:15;4.97;;;2.80;;
71288;SDS011;59068;52.502;9.860;2023-05-19T01:16:42;4.73;;;2.57;;
71288;SDS011;59068;52.502;9.860;2023-05-19T01:30:46;6.23;;;2.50;;
71288;SDS011;59068;52.502;9.860;2023-05-19T01:33:14;3.47;;;2.20;;
71288;SDS011;59068;52.502;9.860;2023-05-19T01:35:41;4.23;;;2.60;;
71288;SDS011;59068;52.502;9.860;2023-05-19T01:38:08;4.33;;;2.30;;
71288;SDS011;59068;52.502;9.860;2023-05-19T01:40:37;3.37;;;2.30;;
71288;SDS011;59068;52.502;9.860;2023-05-19T01:43:03;3.97;;;2.57;;
71288;SDS011;59068;52.502;9.860;2023-05-19T01:45:30;4.83;;;2.43;;
71288;SDS011;59068;52.502;9.860;2023-05-19T01:47:58;5.33;;;2.80;;
71288;SDS011;59068;52.502;9.860;2023-05-19T01:50:27;2.87;;;2.27;;
71288;SDS011;59068;52.502;9.860;2023-05-19T01:52:54;7.20;;;3.03;;
71288;SDS011;59068;52.502;9.860;2023-05-19T01:55:20;4.17;;;2.50;;
71288;SDS011;59068;52.502;9.860;2023-05-19T02:04:28;5.13;;;2.50;;
71288;SDS011;59068;52.502;9.860;2023-05-19T02:10:04;4.27;;;2.20;;
71288;SDS011;59068;52.502;9.860;2023-05-19T02:12:36;4.67;;;2.53;;
71288;SDS011;59068;52.502;9.860;2023-05-19T02:15:05;6.23;;;2.50;;
71288;SDS011;59068;52.502;9.860;2023-05-19T02:17:43;5.67;;;2.70;;
71288;SDS011;59068;52.502;9.860;2023-05-19T02:20:14;5.17;;;2.57;;
71288;SDS011;59068;52.502;9.860;2023-05-19T02:22:41;4.30;;;2.30;;
71288;SDS011;59068;52.502;9.860;2023-05-19T02:25:08;4.63;;;2.80;;
71288;SDS011;59068;52.502;9.860;2023-05-19T02:27:35;5.33;;;2.70;;
71288;SDS011;59068;52.502;9.860;2023-05-19T02:30:03;4.93;;;2.50;;
71288;SDS011;59068;52.502;9.860;2023-05-19T02:32:31;4.00;;;2.40;;
71288;SDS011;59068;52.502;9.860;2023-05-19T02:34:58;4.93;;;2.63;;
71288;SDS011;59068;52.502;9.860;2023-05-19T02:37:25;5.90;;;2.83;;
71288;SDS011;59068;52.502;9.860;2023-05-19T02:39:53;3.73;;;2.50;;
71288;SDS011;59068;52.502;9.860;2023-05-19T02:42:20;7.70;;;2.50;;
71288;SDS011;59068;52.502;9.860;2023-05-19T02:44:47;5.53;;;2.87;;
71288;SDS011;59068;52.502;9.860;2023-05-19T02:47:13;3.60;;;2.57;;
71288;SDS011;59068;52.502;9.860;2023-05-19T02:49:39;4.00;;;2.57;;
71288;SDS011;59068;52.502;9.860;2023-05-19T02:52:08;6.03;;;2.63;;
71288;SDS011;59068;52.502;9.860;2023-05-19T02:54:34;5.23;;;2.50;;
71288;SDS011;59068;52.502;9.860;2023-05-19T02:57:01;3.33;;;2.67;;
71288;SDS011;59068;52.502;9.860;2023-05-19T02:59:27;4.90;;;3.13;;
71288;SDS011;59068;52.502;9.860;2023-05-19T03:01:54;3.43;;;2.40;;
71288;SDS011;59068;52.502;9.860;2023-05-19T03:04:20;4.37;;;2.70;;
71288;SDS011;59068;52.502;9.860;2023-05-19T03:06:46;3.87;;;2.40;;
71288;SDS011;59068;52.502;9.860;2023-05-19T03:09:12;3.03;;;2.70;;
71288;SDS011;59068;52.502;9.860;2023-05-19T03:11:38;5.67;;;2.97;;
71288;SDS011;59068;52.502;9.860;2023-05-19T03:14:03;6.27;;;3.20;;
71288;SDS011;59068;52.502;9.860;2023-05-19T03:16:30;4.87;;;2.57;;
71288;SDS011;59068;52.502;9.860;2023-05-19T03:18:57;4.93;;;2.90;;
71288;SDS011;59068;52.502;9.860;2023-05-19T03:21:24;4.60;;;3.03;;
71288;SDS011;59068;52.502;9.860;2023-05-19T03:23:50;4.53;;;3.40;;
71288;SDS011;59068;52.502;9.860;2023-05-19T03:26:17;4.67;;;3.00;;
71288;SDS011;59068;52.502;9.860;2023-05-19T03:28:44;3.20;;;2.67;;
71288;SDS011;59068;52.502;9.860;2023-05-19T03:31:10;3.93;;;2.40;;
71288;SDS011;59068;52.502;9.860;2023-05-19T03:33:35;5.93;;;3.43;;
71288;SDS011;59068;52.502;9.860;2023-05-19T03:36:01;3.10;;;2.67;;
71288;SDS011;59068;52.502;9.860;2023-05-19T03:38:28;5.50;;;2.80;;
71288;SDS011;59068;52.502;9.860;2023-05-19T03:40:53;5.90;;;3.17;;
71288;SDS011;59068;52.502;9.860;2023-05-19T03:43:18;4.10;;;3.00;;
71288;SDS011;59068;52.502;9.860;2023-05-19T03:45:44;5.10;;;2.90;;
71288;SDS011;59068;52.502;9.860;2023-05-19T03:48:11;4.73;;;2.87;;
71288;SDS011;59068;52.502;9.860;2023-05-19T03:50:36;7.60;;;3.30;;
71288;SDS011;59068;52.502;9.860;2023-05-19T03:53:04;4.60;;;2.70;;
71288;SDS011;59068;52.502;9.860;2023-05-19T03:55:31;4.70;;;2.67;;
71288;SDS011;59068;52.502;9.860;2023-05-19T03:57:58;4.77;;;3.20;;
71288;SDS011;59068;52.502;9.860;2023-05-19T04:00:23;6.10;;;3.90;;
71288;SDS011;59068;52.502;9.860;2023-05-19T04:02:50;4.13;;;2.57;;
71288;SDS011;59068;52.502;9.860;2023-05-19T04:05:17;6.53;;;3.47;;
71288;SDS011;59068;52.502;9.860;2023-05-19T04:07:43;4.77;;;3.20;;
71288;SDS011;59068;52.502;9.860;2023-05-19T04:10:12;5.47;;;3.23;;
71288;SDS011;59068;52.502;9.860;2023-05-19T04:12:37;5.27;;;3.67;;
71288;SDS011;59068;52.502;9.860;2023-05-19T04:15:04;5.77;;;3.70;;
71288;SDS011;59068;52.502;9.860;2023-05-19T04:17:30;3.83;;;2.90;;
71288;SDS011;59068;52.502;9.860;2023-05-19T04:19:57;3.97;;;3.00;;
71288;SDS011;59068;52.502;9.860;2023-05-19T04:22:23;4.60;;;2.97;;
71288;SDS011;59068;52.502;9.860;2023-05-19T04:24:49;9.23;;;4.23;;
71288;SDS011;59068;52.502;9.860;2023-05-19T04:27:17;5.90;;;3.80;;
71288;SDS011;59068;52.502;9.860;2023-05-19T04:29:43;5.23;;;3.57;;
71288;SDS011;59068;52.502;9.860;2023-05-19T04:32:11;7.20;;;3.17;;
71288;SDS011;59068;52.502;9.860;2023-05-19T04:34:41;6.93;;;3.47;;
71288;SDS011;59068;52.502;9.860;2023-05-19T04:37:14;4.10;;;3.27;;
71288;SDS011;59068;52.502;9.860;2023-05-19T04:39:42;8.90;;;3.70;;
71288;SDS011;59068;52.502;9.860;2023-05-19T04:42:11;9.20;;;3.30;;
71288;SDS011;59068;52.502;9.860;2023-05-19T04:44:37;6.57;;;3.63;;
71288;SDS011;59068;52.502;9.860;2023-05-19T04:47:07;5.57;;;3.23;;
71288;SDS011;59068;52.502;9.860;2023-05-19T04:49:34;5.73;;;3.20;;
71288;SDS011;59068;52.502;9.860;2023-05-19T04:52:03;6.13;;;3.20;;
71288;SDS011;59068;52.502;9.860;2023-05-19T04:54:33;5.40;;;3.40;;
71288;SDS011;59068;52.502;9.860;2023-05-19T04:57:00;4.40;;;3.70;;
71288;SDS011;59068;52.502;9.860;2023-05-19T04:59:27;6.47;;;3.63;;
71288;SDS011;59068;52.502;9.860;2023-05-19T05:01:53;7.87;;;3.03;;
71288;SDS011;59068;52.502;9.860;2023-05-19T05:04:21;7.17;;;3.43;;
71288;SDS011;59068;52.502;9.860;2023-05-19T05:06:48;6.23;;;3.50;;
71288;SDS011;59068;52.502;9.860;2023-05-19T05:09:16;5.27;;;3.40;;
71288;SDS011;59068;52.502;9.860;2023-05-19T05:11:42;5.60;;;3.57;;
71288;SDS011;59068;52.502;9.860;2023-05-19T05:14:09;5.70;;;3.67;;
71288;SDS011;59068;52.502;9.860;2023-05-19T05:16:35;5.33;;;3.23;;
71288;SDS011;59068;52.502;9.860;2023-05-19T05:19:01;6.07;;;3.13;;
71288;SDS011;59068;52.502;9.860;2023-05-19T05:21:29;6.00;;;3.30;;
71288;SDS011;59068;52.502;9.860;2023-05-19T05:23:56;4.60;;;3.17;;
71288;SDS011;59068;52.502;9.860;2023-05-19T05:26:24;5.87;;;3.57;;
71288;SDS011;59068;52.502;9.860;2023-05-19T05:28:55;4.70;;;3.70;;
71288;SDS011;59068;52.502;9.860;2023-05-19T05:31:21;6.90;;;3.73;;
71288;SDS011;59068;52.502;9.860;2023-05-19T05:33:48;7.70;;;3.97;;
71288;SDS011;59068;52.502;9.860;2023-05-19T05:36:15;4.37;;;3.17;;
71288;SDS011;59068;52.502;9.860;2023-05-19T05:38:42;5.13;;;3.37;;
71288;SDS011;59068;52.502;9.860;2023-05-19T05:41:08;6.40;;;3.60;;
71288;SDS011;59068;52.502;9.860;2023-05-19T05:43:35;8.37;;;3.67;;
71288;SDS011;59068;52.502;9.860;2023-05-19T05:46:01;14.50;;;3.70;;
71288;SDS011;59068;52.502;9.860;2023-05-19T05:48:28;5.33;;;3.50;;
71288;SDS011;59068;52.502;9.860;2023-05-19T05:50:53;6.30;;;3.20;;
71288;SDS011;59068;52.502;9.860;2023-05-19T05:53:23;5.43;;;3.33;;
71288;SDS011;59068;52.502;9.860;2023-05-19T05:55:50;7.20;;;3.53;;
71288;SDS011;59068;52.502;9.860;2023-05-19T05:58:16;6.23;;;3.13;;
71288;SDS011;59068;52.502;9.860;2023-05-19T06:00:42;6.10;;;3.53;;
71288;SDS011;59068;52.502;9.860;2023-05-19T06:03:09;7.40;;;3.60;;
71288;SDS011;59068;52.502;9.860;2023-05-19T06:05:36;6.30;;;3.73;;
71288;SDS011;59068;52.502;9.860;2023-05-19T06:08:02;5.77;;;3.27;;
71288;SDS011;59068;52.502;9.860;2023-05-19T06:10:28;5.17;;;3.17;;
71288;SDS011;59068;52.502;9.860;2023-05-19T06:12:56;8.20;;;3.67;;
71288;SDS011;59068;52.502;9.860;2023-05-19T06:15:22;6.87;;;3.33;;
71288;SDS011;59068;52.502;9.860;2023-05-19T06:17:52;4.97;;;3.00;;
71288;SDS011;59068;52.502;9.860;2023-05-19T06:20:20;6.83;;;3.03;;
71288;SDS011;59068;52.502;9.860;2023-05-19T06:22:47;6.10;;;2.67;;
71288;SDS011;59068;52.502;9.860;2023-05-19T06:25:12;6.70;;;2.93;;
71288;SDS011;59068;52.502;9.860;2023-05-19T06:27:40;4.93;;;2.43;;
71288;SDS011;59068;52.502;9.860;2023-05-19T06:30:05;5.33;;;2.47;;
71288;SDS011;59068;52.502;9.860;2023-05-19T06:32:32;3.97;;;2.60;;
71288;SDS011;59068;52.502;9.860;2023-05-19T06:35:00;5.63;;;2.57;;
71288;SDS011;59068;52.502;9.860;2023-05-19T06:37:27;4.50;;;2.33;;
71288;SDS011;59068;52.502;9.860;2023-05-19T06:39:53;6.57;;;2.50;;
71288;SDS011;59068;52.502;9.860;2023-05-19T06:42:19;7.47;;;2.70;;
71288;SDS011;59068;52.502;9.860;2023-05-19T06:44:47;4.00;;;2.47;;
71288;SDS011;59068;52.502;9.860;2023-05-19T06:47:15;3.93;;;2.40;;
71288;SDS011;59068;52.502;9.860;2023-05-19T06:49:41;3.93;;;2.07;;
71288;SDS011;59068;52.502;9.860;2023-05-19T06:52:09;7.50;;;2.30;;
71288;SDS011;59068;52.502;9.860;2023-05-19T06:54:36;3.93;;;1.90;;
71288;SDS011;59068;52.502;9.860;2023-05-19T06:57:03;6.10;;;2.27;;
71288;SDS011;59068;52.502;9.860;2023-05-19T06:59:30;4.60;;;1.83;;
71288;SDS011;59068;52.502;9.860;2023-05-19T07:01:57;5.40;;;2.43;;
71288;SDS011;59068;52.502;9.860;2023-05-19T07:04:23;5.20;;;2.10;;
71288;SDS011;59068;52.502;9.860;2023-05-19T07:06:50;3.87;;;1.50;;
71288;SDS011;59068;52.502;9.860;2023-05-19T07:09:16;5.03;;;2.13;;
71288;SDS011;59068;52.502;9.860;2023-05-19T07:11:43;3.30;;;2.00;;
71288;SDS011;59068;52.502;9.860;2023-05-19T07:14:10;4.47;;;1.53;;
71288;SDS011;59068;52.502;9.860;2023-05-19T07:16:36;7.97;;;2.30;;
71288;SDS011;59068;52.502;9.860;2023-05-19T07:19:02;3.73;;;2.00;;
71288;SDS011;59068;52.502;9.860;2023-05-19T07:21:29;6.03;;;2.00;;
71288;SDS011;59068;52.502;9.860;2023-05-19T07:23:55;4.73;;;2.13;;
71288;SDS011;59068;52.502;9.860;2023-05-19T07:26:21;3.67;;;1.80;;
71288;SDS011;59068;52.502;9.860;2023-05-19T07:28:49;3.47;;;1.87;;
71288;SDS011;59068;52.502;9.860;2023-05-19T07:31:16;2.33;;;1.60;;
71288;SDS011;59068;52.502;9.860;2023-05-19T07:33:43;4.47;;;2.00;;
71288;SDS011;59068;52.502;9.860;2023-05-19T07:36:10;6.73;;;2.20;;
71288;SDS011;59068;52.502;9.860;2023-05-19T07:38:36;4.63;;;2.17;;
71288;SDS011;59068;52.502;9.860;2023-05-19T07:41:02;4.87;;;2.00;;
71288;SDS011;59068;52.502;9.860;2023-05-19T07:43:29;4.60;;;1.87;;
71288;SDS011;59068;52.502;9.860;2023-05-19T07:45:57;3.80;;;2.00;;
71288;SDS011;59068;52.502;9.860;2023-05-19T07:48:24;3.40;;;2.00;;
71288;SDS011;59068;52.502;9.860;2023-05-19T07:50:51;5.00;;;1.83;;
71288;SDS011;59068;52.502;9.860;2023-05-19T07:53:18;3.97;;;1.83;;
71288;SDS011;59068;52.502;9.860;2023-05-19T07:55:48;5.23;;;2.00;;
71288;SDS011;59068;52.502;9.860;2023-05-19T07:58:14;5.43;;;2.03;;
71288;SDS011;59068;52.502;9.860;2023-05-19T08:00:40;2.53;;;1.87;;
71288;SDS011;59068;52.502;9.860;2023-05-19T08:03:11;3.97;;;1.90;;
71288;SDS011;59068;52.502;9.860;2023-05-19T08:05:38;3.77;;;2.20;;
71288;SDS011;59068;52.502;9.860;2023-05-19T08:08:04;3.13;;;1.70;;
71288;SDS011;59068;52.502;9.860;2023-05-19T08:10:30;4.30;;;2.17;;
71288;SDS011;59068;52.502;9.860;2023-05-19T08:12:56;4.00;;;1.70;;
71288;SDS011;59068;52.502;9.860;2023-05-19T08:15:23;5.97;;;1.83;;
71288;SDS011;59068;52.502;9.860;2023-05-19T08:17:50;2.87;;;1.73;;
71288;SDS011;59068;52.502;9.860;2023-05-19T08:20:17;4.97;;;1.43;;
71288;SDS011;59068;52.502;9.860;2023-05-19T08:22:43;3.57;;;1.50;;
71288;SDS011;59068;52.502;9.860;2023-05-19T08:25:10;2.63;;;1.70;;
71288;SDS011;59068;52.502;9.860;2023-05-19T08:27:37;6.67;;;1.47;;
71288;SDS011;59068;52.502;9.860;2023-05-19T08:30:03;4.30;;;1.33;;
71288;SDS011;59068;52.502;9.860;2023-05-19T08:32:30;2.23;;;1.23;;
71288;SDS011;59068;52.502;9.860;2023-05-19T08:34:55;4.10;;;1.50;;
71288;SDS011;59068;52.502;9.860;2023-05-19T08:37:22;2.33;;;1.50;;
71288;SDS011;59068;52.502;9.860;2023-05-19T08:39:49;2.73;;;1.30;;
71288;SDS011;59068;52.502;9.860;2023-05-19T08:42:15;5.63;;;1.73;;
71288;SDS011;59068;52.502;9.860;2023-05-19T08:44:41;1.70;;;1.33;;
71288;SDS011;59068;52.502;9.860;2023-05-19T08:47:09;3.57;;;1.60;;
71288;SDS011;59068;52.502;9.860;2023-05-19T08:49:43;3.73;;;1.50;;
71288;SDS011;59068;52.502;9.860;2023-05-19T08:57:52;3.17;;;1.60;;
71288;SDS011;59068;52.502;9.860;2023-05-19T09:00:20;1.57;;;1.10;;
71288;SDS011;59068;52.502;9.860;2023-05-19T09:02:48;3.47;;;1.30;;
71288;SDS011;59068;52.502;9.860;2023-05-19T09:05:15;3.13;;;1.60;;
71288;SDS011;59068;52.502;9.860;2023-05-19T09:07:42;4.60;;;1.50;;
71288;SDS011;59068;52.502;9.860;2023-05-19T09:10:09;4.60;;;1.60;;
71288;SDS011;59068;52.502;9.860;2023-05-19T09:12:44;4.50;;;1.47;;
71288;SDS011;59068;52.502;9.860;2023-05-19T09:15:12;1.77;;;1.37;;
71288;SDS011;59068;52.502;9.860;2023-05-19T09:17:39;3.73;;;1.27;;
71288;SDS011;59068;52.502;9.860;2023-05-19T09:20:04;4.47;;;1.60;;
71288;SDS011;59068;52.502;9.860;2023-05-19T09:22:41;4.63;;;1.67;;
71288;SDS011;59068;52.502;9.860;2023-05-19T09:25:26;3.53;;;1.27;;
71288;SDS011;59068;52.502;9.860;2023-05-19T09:27:53;2.13;;;1.20;;
71288;SDS011;59068;52.502;9.860;2023-05-19T09:30:22;4.80;;;1.50;;
71288;SDS011;59068;52.502;9.860;2023-05-19T09:32:49;3.67;;;1.40;;
71288;SDS011;59068;52.502;9.860;2023-05-19T09:35:15;3.20;;;1.40;;
71288;SDS011;59068;52.502;9.860;2023-05-19T09:37:45;3.20;;;1.43;;
71288;SDS011;59068;52.502;9.860;2023-05-19T09:40:13;3.93;;;1.53;;
71288;SDS011;59068;52.502;9.860;2023-05-19T09:42:41;2.40;;;1.23;;
71288;SDS011;59068;52.502;9.860;2023-05-19T09:45:09;5.27;;;2.03;;
71288;SDS011;59068;52.502;9.860;2023-05-19T09:47:38;3.20;;;1.73;;
71288;SDS011;59068;52.502;9.860;2023-05-19T09:50:08;4.47;;;1.53;;
71288;SDS011;59068;52.502;9.860;2023-05-19T09:52:36;2.40;;;1.10;;
71288;SDS011;59068;52.502;9.860;2023-05-19T09:55:03;2.73;;;1.47;;
71288;SDS011;59068;52.502;9.860;2023-05-19T09:57:35;3.40;;;1.50;;
71288;SDS011;59068;52.502;9.860;2023-05-19T10:00:09;3.83;;;1.63;;
71288;SDS011;59068;52.502;9.860;2023-05-19T10:02:39;2.40;;;1.27;;
71288;SDS011;59068;52.502;9.860;2023-05-19T10:05:08;3.30;;;1.40;;
71288;SDS011;59068;52.502;9.860;2023-05-19T10:07:38;3.03;;;1.93;;
71288;SDS011;59068;52.502;9.860;2023-05-19T10:10:06;3.07;;;1.70;;
71288;SDS011;59068;52.502;9.860;2023-05-19T10:12:37;2.57;;;1.60;;
71288;SDS011;59068;52.502;9.860;2023-05-19T10:15:06;1.70;;;1.60;;
71288;SDS011;59068;52.502;9.860;2023-05-19T10:17:34;2.53;;;1.50;;
71288;SDS011;59068;52.502;9.860;2023-05-19T10:20:07;4.63;;;1.40;;
71288;SDS011;59068;52.502;9.860;2023-05-19T10:22:36;4.43;;;1.40;;
71288;SDS011;59068;52.502;9.860;2023-05-19T10:25:02;4.10;;;1.60;;
71288;SDS011;59068;52.502;9.860;2023-05-19T10:27:29;4.30;;;1.57;;
71288;SDS011;59068;52.502;9.860;2023-05-19T10:29:59;6.13;;;1.57;;
71288;SDS011;59068;52.502;9.860;2023-05-19T10:32:30;1.43;;;1.30;;
71288;SDS011;59068;52.502;9.860;2023-05-19T10:46:41;1.77;;;1.13;;
71288;SDS011;59068;52.502;9.860;2023-05-19T10:49:07;2.03;;;1.30;;
71288;SDS011;59068;52.502;9.860;2023-05-19T10:51:33;2.20;;;1.17;;
71288;SDS011;59068;52.502;9.860;2023-05-19T10:54:02;2.23;;;1.30;;
71288;SDS011;59068;52.502;9.860;2023-05-19T10:59:31;2.40;;;1.00;;
71288;SDS011;59068;52.502;9.860;2023-05-19T11:02:07;2.80;;;1.20;;
71288;SDS011;59068;52.502;9.860;2023-05-19T11:04:47;2.80;;;1.30;;
71288;SDS011;59068;52.502;9.860;2023-05-19T11:07:22;2.70;;;1.20;;
71288;SDS011;59068;52.502;9.860;2023-05-19T11:09:50;3.50;;;1.43;;
71288;SDS011;59068;52.502;9.860;2023-05-19T11:12:22;3.30;;;1.07;;
71288;SDS011;59068;52.502;9.860;2023-05-19T11:14:51;2.33;;;1.00;;
71288;SDS011;59068;52.502;9.860;2023-05-19T11:17:19;0.93;;;0.90;;
71288;SDS011;59068;52.502;9.860;2023-05-19T11:19:52;2.70;;;1.00;;
71288;SDS011;59068;52.502;9.860;2023-05-19T11:22:23;2.13;;;0.90;;
71288;SDS011;59068;52.502;9.860;2023-05-19T11:24:50;2.30;;;1.30;;
71288;SDS011;59068;52.502;9.860;2023-05-19T11:27:33;2.20;;;1.10;;
71288;SDS011;59068;52.502;9.860;2023-05-19T11:32:33;2.03;;;1.17;;
71288;SDS011;59068;52.502;9.860;2023-05-19T11:35:00;1.63;;;1.17;;
71288;SDS011;59068;52.502;9.860;2023-05-19T11:37:26;1.17;;;1.07;;
71288;SDS011;59068;52.502;9.860;2023-05-19T11:39:54;2.87;;;1.30;;
71288;SDS011;59068;52.502;9.860;2023-05-19T11:42:22;2.13;;;1.10;;
71288;SDS011;59068;52.502;9.860;2023-05-19T11:44:47;1.20;;;0.77;;
71288;SDS011;59068;52.502;9.860;2023-05-19T11:47:14;2.93;;;1.00;;
71288;SDS011;59068;52.502;9.860;2023-05-19T11:49:50;2.10;;;1.10;;
71288;SDS011;59068;52.502;9.860;2023-05-19T11:52:23;1.70;;;0.90;;
71288;SDS011;59068;52.502;9.860;2023-05-19T11:54:51;1.80;;;1.00;;
71288;SDS011;59068;52.502;9.860;2023-05-19T11:57:18;1.50;;;0.90;;
71288;SDS011;59068;52.502;9.860;2023-05-19T11:59:44;2.90;;;0.97;;
71288;SDS011;59068;52.502;9.860;2023-05-19T12:04:57;2.20;;;1.10;;
71288;SDS011;59068;52.502;9.860;2023-05-19T12:07:24;2.37;;;1.07;;
71288;SDS011;59068;52.502;9.860;2023-05-19T12:09:51;1.27;;;0.90;;
71288;SDS011;59068;52.502;9.860;2023-05-19T12:12:21;2.10;;;1.30;;
71288;SDS011;59068;52.502;9.860;2023-05-19T12:14:50;2.00;;;1.20;;
71288;SDS011;59068;52.502;9.860;2023-05-19T12:17:19;4.47;;;1.30;;
71288;SDS011;59068;52.502;9.860;2023-05-19T12:19:48;1.77;;;0.90;;
71288;SDS011;59068;52.502;9.860;2023-05-19T12:22:15;2.10;;;0.90;;
71288;SDS011;59068;52.502;9.860;2023-05-19T12:24:42;1.83;;;1.00;;
71288;SDS011;59068;52.502;9.860;2023-05-19T12:29:54;2.30;;;0.80;;
71288;SDS011;59068;52.502;9.860;2023-05-19T12:32:25;2.20;;;0.90;;
71288;SDS011;59068;52.502;9.860;2023-05-19T12:34:55;2.07;;;1.00;;
71288;SDS011;59068;52.502;9.860;2023-05-19T12:37:21;1.40;;;0.90;;
71288;SDS011;59068;52.502;9.860;2023-05-19T12:39:54;2.53;;;0.80;;
71288;SDS011;59068;52.502;9.860;2023-05-19T12:42:21;2.70;;;1.03;;
71288;SDS011;59068;52.502;9.860;2023-05-19T12:44:49;1.03;;;0.93;;
71288;SDS011;59068;52.502;9.860;2023-05-19T12:47:18;1.43;;;0.80;;
71288;SDS011;59068;52.502;9.860;2023-05-19T12:52:34;8.90;;;1.13;;
71288;SDS011;59068;52.502;9.860;2023-05-19T12:55:06;2.63;;;1.07;;
71288;SDS011;59068;52.502;9.860;2023-05-19T12:57:37;1.17;;;0.83;;
71288;SDS011;59068;52.502;9.860;2023-05-19T13:05:45;1.17;;;1.03;;
71288;SDS011;59068;52.502;9.860;2023-05-19T13:08:15;2.03;;;1.07;;
71288;SDS011;59068;52.502;9.860;2023-05-19T13:10:43;2.17;;;0.90;;
71288;SDS011;59068;52.502;9.860;2023-05-19T13:13:10;1.57;;;0.90;;
71288;SDS011;59068;52.502;9.860;2023-05-19T13:15:39;1.23;;;0.90;;
71288;SDS011;59068;52.502;9.860;2023-05-19T13:18:06;1.40;;;1.13;;
71288;SDS011;59068;52.502;9.860;2023-05-19T13:20:34;2.23;;;1.10;;
71288;SDS011;59068;52.502;9.860;2023-05-19T13:23:01;1.90;;;1.10;;
71288;SDS011;59068;52.502;9.860;2023-05-19T13:25:27;1.30;;;1.20;;
71288;SDS011;59068;52.502;9.860;2023-05-19T13:27:54;0.80;;;0.80;;
71288;SDS011;59068;52.502;9.860;2023-05-19T13:30:22;2.07;;;1.00;;
71288;SDS011;59068;52.502;9.860;2023-05-19T13:32:49;2.23;;;0.80;;
71288;SDS011;59068;52.502;9.860;2023-05-19T13:35:18;1.10;;;0.90;;
71288;SDS011;59068;52.502;9.860;2023-05-19T13:37:45;1.73;;;0.80;;
71288;SDS011;59068;52.502;9.860;2023-05-19T13:40:12;1.30;;;0.97;;
71288;SDS011;59068;52.502;9.860;2023-05-19T13:42:39;1.10;;;1.00;;
71288;SDS011;59068;52.502;9.860;2023-05-19T13:45:06;0.80;;;0.80;;
71288;SDS011;59068;52.502;9.860;2023-05-19T13:47:33;4.90;;;1.10;;
71288;SDS011;59068;52.502;9.860;2023-05-19T13:49:59;3.20;;;0.90;;
71288;SDS011;59068;52.502;9.860;2023-05-19T13:52:26;2.03;;;1.10;;
71288;SDS011;59068;52.502;9.860;2023-05-19T13:54:54;1.07;;;0.90;;
71288;SDS011;59068;52.502;9.860;2023-05-19T13:57:22;1.77;;;1.20;;
71288;SDS011;59068;52.502;9.860;2023-05-19T13:59:48;2.63;;;1.10;;
71288;SDS011;59068;52.502;9.860;2023-05-19T14:02:15;1.80;;;1.10;;
71288;SDS011;59068;52.502;9.860;2023-05-19T14:04:40;5.50;;;1.07;;
71288;SDS011;59068;52.502;9.860;2023-05-19T14:07:07;1.47;;;1.10;;
71288;SDS011;59068;52.502;9.860;2023-05-19T14:09:34;1.07;;;0.90;;
71288;SDS011;59068;52.502;9.860;2023-05-19T14:11:59;1.63;;;0.90;;
71288;SDS011;59068;52.502;9.860;2023-05-19T14:14:24;1.70;;;1.13;;
71288;SDS011;59068;52.502;9.860;2023-05-19T14:16:50;1.23;;;0.80;;
71288;SDS011;59068;52.502;9.860;2023-05-19T14:19:16;1.77;;;0.87;;
71288;SDS011;59068;52.502;9.860;2023-05-19T14:21:43;0.90;;;0.70;;
71288;SDS011;59068;52.502;9.860;2023-05-19T14:24:10;1.10;;;1.00;;
71288;SDS011;59068;52.502;9.860;2023-05-19T14:26:36;3.37;;;1.10;;
71288;SDS011;59068;52.502;9.860;2023-05-19T14:29:03;3.37;;;1.10;;
71288;SDS011;59068;52.502;9.860;2023-05-19T14:31:29;3.80;;;1.10;;
71288;SDS011;59068;52.502;9.860;2023-05-19T14:33:56;2.50;;;1.00;;
71288;SDS011;59068;52.502;9.860;2023-05-19T14:36:22;2.97;;;1.10;;
71288;SDS011;59068;52.502;9.860;2023-05-19T14:38:49;2.20;;;1.10;;
71288;SDS011;59068;52.502;9.860;2023-05-19T14:41:14;3.10;;;0.90;;
71288;SDS011;59068;52.502;9.860;2023-05-19T14:43:40;2.60;;;1.10;;
71288;SDS011;59068;52.502;9.860;2023-05-19T14:46:07;2.57;;;1.00;;
71288;SDS011;59068;52.502;9.860;2023-05-19T14:48:34;0.80;;;0.80;;
71288;SDS011;59068;52.502;9.860;2023-05-19T14:51:00;1.77;;;0.83;;
71288;SDS011;59068;52.502;9.860;2023-05-19T14:53:26;1.27;;;0.83;;
71288;SDS011;59068;52.502;9.860;2023-05-19T14:55:53;1.57;;;0.80;;
71288;SDS011;59068;52.502;9.860;2023-05-19T14:58:19;1.40;;;1.10;;
71288;SDS011;59068;52.502;9.860;2023-05-19T15:00:46;2.03;;;1.10;;
71288;SDS011;59068;52.502;9.860;2023-05-19T15:03:13;2.50;;;1.20;;
71288;SDS011;59068;52.502;9.860;2023-05-19T15:05:38;1.97;;;0.90;;
71288;SDS011;59068;52.502;9.860;2023-05-19T15:08:07;1.60;;;1.00;;
71288;SDS011;59068;52.502;9.860;2023-05-19T15:10:33;2.87;;;0.97;;
71288;SDS011;59068;52.502;9.860;2023-05-19T15:13:01;1.93;;;1.10;;
71288;SDS011;59068;52.502;9.860;2023-05-19T15:15:29;1.17;;;0.90;;
71288;SDS011;59068;52.502;9.860;2023-05-19T15:17:56;1.67;;;1.10;;
71288;SDS011;59068;52.502;9.860;2023-05-19T15:20:23;2.23;;;1.10;;
71288;SDS011;59068;52.502;9.860;2023-05-19T15:22:48;1.67;;;1.00;;
71288;SDS011;59068;52.502;9.860;2023-05-19T15:25:14;2.70;;;0.90;;
71288;SDS011;59068;52.502;9.860;2023-05-19T15:27:41;2.67;;;1.00;;
71288;SDS011;59068;52.502;9.860;2023-05-19T15:30:08;0.90;;;0.90;;
71288;SDS011;59068;52.502;9.860;2023-05-19T15:32:36;2.10;;;1.17;;
71288;SDS011;59068;52.502;9.860;2023-05-19T15:35:02;1.13;;;1.03;;
71288;SDS011;59068;52.502;9.860;2023-05-19T15:37:29;2.33;;;0.93;;
71288;SDS011;59068;52.502;9.860;2023-05-19T15:39:56;1.20;;;1.00;;
71288;SDS011;59068;52.502;9.860;2023-05-19T15:42:22;1.87;;;0.87;;
71288;SDS011;59068;52.502;9.860;2023-05-19T15:44:48;1.43;;;1.10;;
71288;SDS011;59068;52.502;9.860;2023-05-19T15:47:15;1.50;;;0.80;;